Time,TemperatureF,DewpointF,PressureIn,WindDirection,WindDirectionDegrees,WindSpeedMPH,WindSpeedGustMPH,Humidity,HourlyPrecipIn,Conditions,Clouds,dailyrainin,SolarRadiationWatts/m^2,SoftwareType,DateUTC
2013-03-17 00:03:00,41.7,31.2,30.14,NE,53,3.5,3.5,66,0.00,,,0.00,0.0,WeatherDisplay:10.37,2013-03-16 23:03:00,
2013-03-17 00:08:00,41.7,31.2,30.14,SW,227,3.5,3.5,66,0.00,,,0.00,0.0,WeatherDisplay:10.37,2013-03-16 23:08:00,
2013-03-17 00:13:00,41.8,31.3,30.13,SSW,205,2.3,2.3,66,0.00,,,0.00,0.0,WeatherDisplay:10.37,2013-03-16 23:13:00,
2013-03-17 00:18:00,41.8,31.3,30.13,WSW,246,3.5,3.5,66,0.00,,,0.00,0.0,WeatherDisplay:10.37,2013-03-16 23:18:00,
2013-03-17 00:23:00,41.7,30.8,30.13,SSW,207,4.0,4.0,65,0.00,,,0.00,0.0,WeatherDisplay:10.37,2013-03-16 23:23:00,
2013-03-17 00:28:00,41.4,30.5,30.14,SW,235,3.5,3.5,65,0.00,,,0.00,0.0,WeatherDisplay:10.37,2013-03-16 23:28:00,
2013-03-17 00:33:00,41.3,30.8,30.14,WSW,244,3.5,3.5,66,0.00,,,0.00,0.0,WeatherDisplay:10.37,2013-03-16 23:33:00,
2013-03-17 00:38:00,41.3,30.8,30.13,WSW,244,4.0,4.0,66,0.00,,,0.00,0.0,WeatherDisplay:10.37,2013-03-16 23:38:00,
2013-03-17 00:43:00,41.3,30.4,30.13,SSW,209,6.0,6.0,65,0.00,,,0.00,0.0,WeatherDisplay:10.37,2013-03-16 23:43:00,
2013-03-17 00:48:00,41.2,30.3,30.14,NE,35,4.0,4.0,65,0.00,,,0.00,0.0,WeatherDisplay:10.37,2013-03-16 23:48:00,
2013-03-17 00:53:00,41.2,30.3,30.14,South,186,3.5,3.5,65,0.00,,,0.00,0.0,WeatherDisplay:10.37,2013-03-16 23:53:00,
2013-03-17 00:58:00,41.5,30.6,30.14,SW,217,3.5,3.5,65,0.00,,,0.00,0.0,WeatherDisplay:10.37,2013-03-16 23:58:00,
2013-03-17 01:03:00,41.7,30.4,30.14,North,9,3.5,3.5,64,0.00,,,0.00,0.0,WeatherDisplay:10.37,2013-03-17 00:03:00,
2013-03-17 01:08:00,41.8,30.5,30.14,SSW,208,5.8,5.8,64,0.00,,,0.00,0.0,WeatherDisplay:10.37,2013-03-17 00:08:00,
2013-03-17 01:13:00,41.7,30.4,30.14,NNE,17,4.6,4.6,64,0.00,,,0.00,0.0,WeatherDisplay:10.37,2013-03-17 00:13:00,
2013-03-17 01:18:00,41.5,30.2,30.14,WNW,298,2.3,2.3,64,0.00,,,0.00,0.0,WeatherDisplay:10.37,2013-03-17 00:18:00,
2013-03-17 01:23:00,41.3,30.4,30.14,ESE,119,2.3,2.3,65,0.00,,,0.00,0.0,WeatherDisplay:10.37,2013-03-17 00:23:00,
2013-03-17 01:28:00,41.3,30.4,30.13,West,267,1.2,1.2,65,0.00,,,0.00,0.0,WeatherDisplay:10.37,2013-03-17 00:28:00,
2013-03-17 01:33:00,41.2,30.3,30.13,SW,218,3.5,3.5,65,0.00,,,0.00,0.0,WeatherDisplay:10.37,2013-03-17 00:33:00,
2013-03-17 01:38:00,41.2,30.3,30.14,West,281,3.0,3.0,65,0.00,,,0.00,0.0,WeatherDisplay:10.37,2013-03-17 00:38:00,
2013-03-17 01:43:00,41.4,30.5,30.13,WSW,239,3.5,3.5,65,0.00,,,0.00,0.0,WeatherDisplay:10.37,2013-03-17 00:43:00,
2013-03-17 01:48:00,41.4,30.5,30.13,SW,227,4.6,4.6,65,0.00,,,0.00,0.0,WeatherDisplay:10.37,2013-03-17 00:48:00,
2013-03-17 01:53:00,41.3,30.4,30.13,ESE,121,3.5,3.5,65,0.00,,,0.00,0.0,WeatherDisplay:10.37,2013-03-17 00:53:00,
2013-03-17 01:58:00,41.3,30.4,30.13,WNW,299,2.3,2.3,65,0.00,,,0.00,0.0,WeatherDisplay:10.37,2013-03-17 00:58:00,
2013-03-17 02:03:00,41.3,30.8,30.13,SSW,205,3.5,3.5,66,0.00,,,0.00,0.0,WeatherDisplay:10.37,2013-03-17 01:03:00,
2013-03-17 02:08:00,41.1,30.6,30.13,SW,234,2.3,2.3,66,0.00,,,0.00,0.0,WeatherDisplay:10.37,2013-03-17 01:08:00,
2013-03-17 02:13:00,40.8,30.7,30.13,SSW,206,3.5,3.5,67,0.00,,,0.00,0.0,WeatherDisplay:10.37,2013-03-17 01:13:00,
2013-03-17 02:18:00,40.7,30.6,30.13,WNW,291,3.5,3.5,67,0.00,,,0.00,0.0,WeatherDisplay:10.37,2013-03-17 01:18:00,
2013-03-17 02:24:00,40.6,30.5,30.13,WSW,242,3.5,3.5,67,0.00,,,0.00,0.0,WeatherDisplay:10.37,2013-03-17 01:24:00,
2013-03-17 02:29:00,40.7,30.6,30.13,WSW,250,3.5,3.5,67,0.00,,,0.00,0.0,WeatherDisplay:10.37,2013-03-17 01:29:00,
2013-03-17 02:34:00,40.9,30.4,30.13,WNW,291,5.8,5.8,66,0.00,,,0.00,0.0,WeatherDisplay:10.37,2013-03-17 01:34:00,
2013-03-17 02:39:00,41.2,30.3,30.12,East,82,3.5,3.5,65,0.00,,,0.00,0.0,WeatherDisplay:10.37,2013-03-17 01:39:00,
2013-03-17 02:44:00,41.1,30.2,30.12,NE,38,2.3,2.3,65,0.00,FEW,,0.00,0.0,WeatherDisplay:10.37,2013-03-17 01:44:00,
2013-03-17 02:49:00,40.9,30.0,30.12,SSW,198,3.5,3.5,65,0.00,FEW,,0.00,0.0,WeatherDisplay:10.37,2013-03-17 01:49:00,
2013-03-17 02:54:00,41.0,30.1,30.11,SW,227,4.6,4.6,65,0.00,FEW,,0.00,0.0,WeatherDisplay:10.37,2013-03-17 01:54:00,
2013-03-17 02:59:00,41.2,30.3,30.11,WSW,255,3.5,3.5,65,0.00,FEW,,0.00,0.0,WeatherDisplay:10.37,2013-03-17 01:59:00,
2013-03-17 03:04:00,41.2,30.3,30.11,NE,49,5.0,5.0,65,0.00,FEW,,0.00,0.0,WeatherDisplay:10.37,2013-03-17 02:04:00,
2013-03-17 03:09:00,41.1,30.2,30.11,SW,215,3.5,3.5,65,0.00,FEW,,0.00,0.0,WeatherDisplay:10.37,2013-03-17 02:09:00,
2013-03-17 03:14:00,41.1,30.2,30.11,WNW,282,3.5,3.5,65,0.00,FEW,,0.00,0.0,WeatherDisplay:10.37,2013-03-17 02:14:00,
2013-03-17 03:19:00,41.3,30.4,30.11,SW,229,3.5,3.5,65,0.00,FEW,,0.00,0.0,WeatherDisplay:10.37,2013-03-17 02:19:00,
2013-03-17 03:24:00,41.2,29.9,30.11,SW,226,4.6,4.6,64,0.00,FEW,,0.00,0.0,WeatherDisplay:10.37,2013-03-17 02:24:00,
2013-03-17 03:29:00,41.2,29.9,30.11,South,186,3.5,3.5,64,0.00,FEW,,0.00,0.0,WeatherDisplay:10.37,2013-03-17 02:29:00,
2013-03-17 03:34:00,41.1,29.8,30.11,WSW,242,4.6,4.6,64,0.00,FEW,,0.00,0.0,WeatherDisplay:10.37,2013-03-17 02:34:00,
2013-03-17 03:39:00,41.0,29.7,30.11,SW,227,3.5,3.5,64,0.00,FEW,,0.00,0.0,WeatherDisplay:10.37,2013-03-17 02:39:00,
2013-03-17 03:44:00,41.1,29.8,30.11,SW,236,3.5,3.5,64,0.00,FEW,,0.00,0.0,WeatherDisplay:10.37,2013-03-17 02:44:00,
2013-03-17 03:49:00,41.2,29.9,30.10,North,9,3.5,3.5,64,0.00,FEW,,0.00,0.0,WeatherDisplay:10.37,2013-03-17 02:49:00,
2013-03-17 03:54:00,41.0,30.1,30.10,ENE,65,5.0,5.0,65,0.00,FEW,,0.00,0.0,WeatherDisplay:10.37,2013-03-17 02:54:00,
2013-03-17 03:59:00,40.9,30.0,30.10,SW,234,3.5,3.5,65,0.00,FEW,,0.00,0.0,WeatherDisplay:10.37,2013-03-17 02:59:00,
2013-03-17 04:04:00,40.8,29.9,30.10,WNW,295,4.6,4.6,65,0.00,FEW,,0.00,0.0,WeatherDisplay:10.37,2013-03-17 03:04:00,
2013-03-17 04:09:00,40.8,29.9,30.10,NNW,329,3.5,3.5,65,0.00,FEW,,0.00,0.0,WeatherDisplay:10.37,2013-03-17 03:09:00,
2013-03-17 04:14:00,40.8,29.9,30.11,West,264,6.9,6.9,65,0.00,FEW,,0.00,0.0,WeatherDisplay:10.37,2013-03-17 03:14:00,
2013-03-17 04:19:00,40.8,29.9,30.10,SW,232,6.9,6.9,65,0.00,FEW,,0.00,0.0,WeatherDisplay:10.37,2013-03-17 03:19:00,
2013-03-17 04:24:00,40.8,29.9,30.10,ENE,61,4.6,4.6,65,0.00,FEW,,0.00,0.0,WeatherDisplay:10.37,2013-03-17 03:24:00,
2013-03-17 04:29:00,40.9,30.0,30.11,SSW,212,4.6,4.6,65,0.00,FEW,,0.00,0.0,WeatherDisplay:10.37,2013-03-17 03:29:00,
2013-03-17 04:34:00,40.9,30.0,30.10,NE,36,4.6,4.6,65,0.00,FEW,,0.00,0.0,WeatherDisplay:10.37,2013-03-17 03:34:00,
2013-03-17 04:39:00,40.7,29.8,30.10,SW,231,5.8,5.8,65,0.00,FEW,,0.00,0.0,WeatherDisplay:10.37,2013-03-17 03:39:00,
2013-03-17 04:44:00,40.7,29.8,30.10,SSE,163,4.6,4.6,65,0.00,FEW,,0.00,0.0,WeatherDisplay:10.37,2013-03-17 03:44:00,
2013-03-17 04:49:00,40.8,29.9,30.10,ENE,73,6.9,6.9,65,0.00,FEW,,0.00,0.0,WeatherDisplay:10.37,2013-03-17 03:49:00,
2013-03-17 04:54:00,40.9,29.7,30.10,NNE,16,6.9,6.9,64,0.00,FEW,,0.00,0.0,WeatherDisplay:10.37,2013-03-17 03:54:00,
2013-03-17 04:59:00,40.8,29.6,30.10,SW,236,3.5,3.5,64,0.00,FEW,,0.00,0.0,WeatherDisplay:10.37,2013-03-17 03:59:00,
2013-03-17 05:00:00,40.8,29.9,30.10,SSW,201,3.5,3.5,65,0.00,FEW,,0.00,0.0,WeatherDisplay:10.37,2013-03-17 04:00:00,
2013-03-17 05:05:00,40.8,29.9,30.10,West,266,4.6,4.6,65,0.00,,,0.00,0.0,WeatherDisplay:10.37,2013-03-17 04:05:00,
2013-03-17 05:10:00,40.9,29.7,30.10,WSW,256,3.5,3.5,64,0.00,,,0.00,0.0,WeatherDisplay:10.37,2013-03-17 04:10:00,
2013-03-17 05:15:00,41.0,29.7,30.10,SW,227,3.5,3.5,64,0.00,,,0.00,0.0,WeatherDisplay:10.37,2013-03-17 04:15:00,
2013-03-17 05:20:00,41.0,29.7,30.10,NNW,346,6.9,6.9,64,0.00,,,0.00,0.0,WeatherDisplay:10.37,2013-03-17 04:20:00,
2013-03-17 05:25:00,41.1,29.8,30.10,SE,128,5.0,5.0,64,0.00,,,0.00,0.0,WeatherDisplay:10.37,2013-03-17 04:25:00,
2013-03-17 05:30:00,41.2,29.5,30.11,WSW,241,4.6,4.6,63,0.00,,,0.00,0.0,WeatherDisplay:10.37,2013-03-17 04:30:00,
2013-03-17 05:35:00,41.2,29.5,30.10,SW,234,4.6,4.6,63,0.00,,,0.00,0.0,WeatherDisplay:10.37,2013-03-17 04:35:00,
2013-03-17 05:40:00,41.2,29.5,30.10,East,98,4.6,4.6,63,0.00,,,0.00,0.0,WeatherDisplay:10.37,2013-03-17 04:40:00,
2013-03-17 05:45:00,41.3,29.6,30.10,WSW,249,4.6,4.6,63,0.00,,,0.00,0.0,WeatherDisplay:10.37,2013-03-17 04:45:00,
2013-03-17 05:50:00,41.4,29.7,30.10,South,186,3.5,3.5,63,0.00,,,0.00,0.0,WeatherDisplay:10.37,2013-03-17 04:50:00,
2013-03-17 05:55:00,41.7,30.0,30.10,South,180,3.5,3.5,63,0.00,,,0.00,0.0,WeatherDisplay:10.37,2013-03-17 04:55:00,
2013-03-17 06:00:00,41.8,30.1,30.10,NE,43,6.0,6.0,63,0.00,,,0.00,0.0,WeatherDisplay:10.37,2013-03-17 05:00:00,
2013-03-17 06:05:00,41.8,30.1,30.10,South,188,5.8,5.8,63,0.00,,,0.00,0.0,WeatherDisplay:10.37,2013-03-17 05:05:00,
2013-03-17 06:10:00,42.0,29.9,30.10,WNW,293,5.8,5.8,62,0.00,,,0.00,0.0,WeatherDisplay:10.37,2013-03-17 05:10:00,
2013-03-17 06:15:00,42.1,30.0,30.10,West,259,3.5,4.2,62,0.00,CLR,,0.00,7.0,WeatherDisplay:10.37,2013-03-17 05:15:00,
2013-03-17 06:20:00,42.1,30.4,30.10,SSE,160,3.5,3.5,63,0.00,SCT,,0.00,9.0,WeatherDisplay:10.37,2013-03-17 05:20:00,
2013-03-17 06:25:00,42.2,30.1,30.10,NNE,16,7.0,7.0,62,0.00,SCT,,0.00,16.0,WeatherDisplay:10.37,2013-03-17 05:25:00,
2013-03-17 06:30:00,42.5,30.4,30.10,SW,228,3.5,3.5,62,0.00,SCT,,0.00,21.0,WeatherDisplay:10.37,2013-03-17 05:30:00,
2013-03-17 06:35:00,42.7,30.6,30.10,WSW,244,6.9,6.9,62,0.00,SCT,,0.00,26.0,WeatherDisplay:10.37,2013-03-17 05:35:00,
2013-03-17 06:40:00,42.8,30.3,30.10,SE,140,5.0,5.0,61,0.00,SCT,,0.00,30.0,WeatherDisplay:10.37,2013-03-17 05:40:00,
2013-03-17 06:45:00,42.9,30.4,30.10,NE,46,4.6,4.6,61,0.00,SCT,,0.00,37.0,WeatherDisplay:10.37,2013-03-17 05:45:00,
2013-03-17 06:50:00,43.0,30.5,30.10,NNW,328,6.9,6.9,61,0.00,SCT,,0.00,49.0,WeatherDisplay:10.37,2013-03-17 05:50:00,
2013-03-17 06:56:00,43.1,30.6,30.10,ENE,61,4.6,4.6,61,0.00,SCT,,0.00,60.0,WeatherDisplay:10.37,2013-03-17 05:56:00,
2013-03-17 07:01:00,43.4,30.8,30.10,NNW,336,6.9,6.9,61,0.00,SCT,,0.00,62.0,WeatherDisplay:10.37,2013-03-17 06:01:00,
2013-03-17 07:06:00,43.6,30.6,30.10,West,259,4.0,4.0,60,0.00,SCT,,0.00,60.0,WeatherDisplay:10.37,2013-03-17 06:06:00,
2013-03-17 07:11:00,43.8,30.8,30.10,WSW,238,4.0,4.0,60,0.00,SCT,,0.00,67.0,WeatherDisplay:10.37,2013-03-17 06:11:00,
2013-03-17 07:16:00,44.0,30.6,30.09,North,355,6.9,6.9,59,0.00,SCT,,0.00,70.0,WeatherDisplay:10.37,2013-03-17 06:16:00,
2013-03-17 07:21:00,44.2,30.8,30.10,East,85,7.0,7.0,59,0.00,SCT,,0.00,84.0,WeatherDisplay:10.37,2013-03-17 06:21:00,
2013-03-17 07:26:00,44.3,30.9,30.10,East,86,8.0,8.0,59,0.00,SCT,,0.00,84.0,WeatherDisplay:10.37,2013-03-17 06:26:00,
2013-03-17 07:31:00,44.5,30.6,30.10,SSW,202,10.4,10.4,58,0.00,SCT,,0.00,109.0,WeatherDisplay:10.37,2013-03-17 06:31:00,
2013-03-17 07:36:00,44.7,30.8,30.10,WSW,240,4.6,4.6,58,0.00,SCT,,0.00,171.0,WeatherDisplay:10.37,2013-03-17 06:36:00,
2013-03-17 07:41:00,45.0,31.1,30.10,SW,216,7.0,7.0,58,0.00,SCT,,0.00,253.0,WeatherDisplay:10.37,2013-03-17 06:41:00,
2013-03-17 07:46:00,45.3,31.0,30.10,ENE,67,8.1,8.1,57,0.00,SCT,,0.00,167.0,WeatherDisplay:10.37,2013-03-17 06:46:00,
2013-03-17 07:51:00,45.6,30.8,30.10,ESE,103,3.5,3.5,56,0.00,SCT,,0.00,174.0,WeatherDisplay:10.37,2013-03-17 06:51:00,
2013-03-17 07:56:00,45.8,31.0,30.10,West,261,5.0,5.0,56,0.00,SCT,,0.00,176.0,WeatherDisplay:10.37,2013-03-17 06:56:00,
2013-03-17 08:01:00,46.0,31.2,30.10,South,171,4.6,4.6,56,0.00,SCT,,0.00,281.0,WeatherDisplay:10.37,2013-03-17 07:01:00,
2013-03-17 08:07:00,46.2,30.9,30.10,NNW,333,4.6,4.6,55,0.00,SCT,,0.00,188.0,WeatherDisplay:10.37,2013-03-17 07:07:00,
2013-03-17 08:12:00,46.4,31.1,30.10,WNW,298,3.5,3.5,55,0.00,SCT,,0.00,195.0,WeatherDisplay:10.37,2013-03-17 07:12:00,
2013-03-17 08:17:00,46.7,31.4,30.11,West,279,4.6,4.6,55,0.00,SCT,,0.00,255.0,WeatherDisplay:10.37,2013-03-17 07:17:00,
2013-03-17 08:22:00,47.1,31.3,30.11,South,177,3.5,3.5,54,0.00,SCT,,0.00,276.0,WeatherDisplay:10.37,2013-03-17 07:22:00,
2013-03-17 08:27:00,47.4,31.6,30.11,SSW,211,3.5,3.5,54,0.00,SCT,,0.00,272.0,WeatherDisplay:10.37,2013-03-17 07:27:00,
2013-03-17 08:32:00,47.4,31.1,30.10,WSW,254,5.8,5.8,53,0.00,SCT,,0.00,234.0,WeatherDisplay:10.37,2013-03-17 07:32:00,
2013-03-17 08:37:00,47.3,31.5,30.10,SE,139,6.9,6.9,54,0.00,SCT,,0.00,197.0,WeatherDisplay:10.37,2013-03-17 07:37:00,
2013-03-17 08:42:00,47.4,31.6,30.10,SSE,160,3.5,3.5,54,0.00,SCT,,0.00,195.0,WeatherDisplay:10.37,2013-03-17 07:42:00,
2013-03-17 08:47:00,47.5,31.7,30.11,WSW,246,6.9,6.9,54,0.00,SCT,,0.00,236.0,WeatherDisplay:10.37,2013-03-17 07:47:00,
2013-03-17 08:52:00,47.5,31.7,30.11,NW,311,3.5,3.5,54,0.00,SCT,,0.00,267.0,WeatherDisplay:10.37,2013-03-17 07:52:00,
2013-03-17 08:57:00,47.7,32.3,30.11,NE,44,4.6,4.6,55,0.00,SCT,,0.00,304.0,WeatherDisplay:10.37,2013-03-17 07:57:00,
2013-03-17 09:02:00,48.1,32.7,30.11,North,360,3.5,3.5,55,0.00,SCT,,0.00,339.0,WeatherDisplay:10.37,2013-03-17 08:02:00,
2013-03-17 09:07:00,48.5,32.6,30.10,ESE,117,4.6,4.6,54,0.00,SCT,,0.00,355.0,WeatherDisplay:10.37,2013-03-17 08:07:00,
2013-03-17 09:12:00,48.9,33.0,30.11,SW,222,3.5,3.5,54,0.00,SCT,,0.00,454.0,WeatherDisplay:10.37,2013-03-17 08:12:00,
2013-03-17 09:17:00,49.4,33.4,30.10,SSW,207,4.6,4.6,54,0.00,SCT,,0.00,295.0,WeatherDisplay:10.37,2013-03-17 08:17:00,
2013-03-17 09:22:00,49.4,33.4,30.10,ENE,60,7.0,7.0,54,0.00,SCT,,0.00,334.0,WeatherDisplay:10.37,2013-03-17 08:22:00,
2013-03-17 09:27:00,49.4,33.4,30.10,West,267,3.5,3.5,54,0.00,SCT,,0.00,265.0,WeatherDisplay:10.37,2013-03-17 08:27:00,
2013-03-17 09:32:00,49.4,33.4,30.10,SSW,209,3.5,3.5,54,0.00,SCT,,0.00,246.0,WeatherDisplay:10.37,2013-03-17 08:32:00,
2013-03-17 09:37:00,49.4,33.4,30.10,NE,55,6.9,6.9,54,0.00,SCT,,0.00,237.0,WeatherDisplay:10.37,2013-03-17 08:37:00,
2013-03-17 09:42:00,49.5,34.0,30.10,WSW,258,4.6,4.6,55,0.00,SCT,,0.00,258.0,WeatherDisplay:10.37,2013-03-17 08:42:00,
2013-03-17 09:48:00,49.7,34.2,30.10,NW,312,5.8,5.8,55,0.00,SCT,,0.00,279.0,WeatherDisplay:10.37,2013-03-17 08:48:00,
2013-03-17 09:53:00,49.8,34.3,30.10,North,355,3.5,3.5,55,0.00,SCT,,0.00,276.0,WeatherDisplay:10.37,2013-03-17 08:53:00,
2013-03-17 09:58:00,50.0,34.5,30.10,SE,132,4.0,4.0,55,0.00,SCT,,0.00,279.0,WeatherDisplay:10.37,2013-03-17 08:58:00,
2013-03-17 10:03:00,50.2,34.6,30.09,SW,235,4.6,4.6,55,0.00,SCT,,0.00,281.0,WeatherDisplay:10.37,2013-03-17 09:03:00,
2013-03-17 10:08:00,50.2,34.2,30.09,SW,232,2.3,2.3,54,0.00,SCT,,0.00,311.0,WeatherDisplay:10.37,2013-03-17 09:08:00,
2013-03-17 10:13:00,50.4,33.9,30.09,SSW,195,3.5,3.5,53,0.00,SCT,,0.00,325.0,WeatherDisplay:10.37,2013-03-17 09:13:00,
2013-03-17 10:18:00,50.5,34.5,30.08,SSW,194,8.1,8.1,54,0.00,SCT,,0.00,360.0,WeatherDisplay:10.37,2013-03-17 09:18:00,
2013-03-17 10:23:00,50.5,34.0,30.08,ESE,115,9.2,9.2,53,0.00,SCT,,0.00,350.0,WeatherDisplay:10.37,2013-03-17 09:23:00,
2013-03-17 10:28:00,50.3,34.3,30.08,SE,125,10.4,10.4,54,0.00,SCT,,0.00,369.0,WeatherDisplay:10.37,2013-03-17 09:28:00,
2013-03-17 10:33:00,50.5,34.5,30.08,ESE,112,6.9,6.9,54,0.00,SCT,,0.00,341.0,WeatherDisplay:10.37,2013-03-17 09:33:00,
2013-03-17 10:38:00,50.5,34.5,30.08,ENE,74,8.0,8.0,54,0.00,SCT,,0.00,411.0,WeatherDisplay:10.37,2013-03-17 09:38:00,
2013-03-17 10:43:00,50.6,34.6,30.08,ESE,111,7.0,7.0,54,0.00,FEW,,0.00,367.0,WeatherDisplay:10.37,2013-03-17 09:43:00,
2013-03-17 10:48:00,50.4,34.4,30.08,ESE,109,10.4,10.4,54,0.00,FEW,,0.00,350.0,WeatherDisplay:10.37,2013-03-17 09:48:00,
2013-03-17 10:53:00,50.6,34.6,30.08,ESE,112,8.0,8.0,54,0.00,FEW,,0.00,304.0,WeatherDisplay:10.37,2013-03-17 09:53:00,
2013-03-17 10:58:00,50.7,34.2,30.08,NNE,13,5.8,5.8,53,0.00,FEW,,0.00,290.0,WeatherDisplay:10.37,2013-03-17 09:58:00,
2013-03-17 11:03:00,51.1,34.5,30.08,SW,232,2.3,2.3,53,0.00,FEW,,0.00,318.0,WeatherDisplay:10.37,2013-03-17 10:03:00,
2013-03-17 11:08:00,51.4,34.3,30.08,NE,37,3.5,3.5,52,0.00,FEW,,0.00,357.0,WeatherDisplay:10.37,2013-03-17 10:08:00,
2013-03-17 11:13:00,51.9,35.3,30.08,East,84,1.2,0.0,53,0.00,FEW,,0.00,350.0,WeatherDisplay:10.37,2013-03-17 10:13:00,
2013-03-17 11:18:00,52.3,35.2,30.08,WSW,237,3.5,3.5,52,0.00,FEW,,0.00,302.0,WeatherDisplay:10.37,2013-03-17 10:18:00,
2013-03-17 11:23:00,52.4,34.8,30.07,NNE,25,3.5,3.5,51,0.00,FEW,,0.00,313.0,WeatherDisplay:10.37,2013-03-17 10:23:00,
2013-03-17 11:28:00,52.4,35.3,30.07,NNW,329,3.5,3.5,52,0.00,FEW,,0.00,445.0,WeatherDisplay:10.37,2013-03-17 10:28:00,
2013-03-17 11:33:00,52.7,35.6,30.07,NNE,13,2.3,2.3,52,0.00,FEW,,0.00,552.0,WeatherDisplay:10.37,2013-03-17 10:33:00,
2013-03-17 11:38:00,53.3,35.6,30.08,NW,320,2.3,2.3,51,0.00,FEW,,0.00,594.0,WeatherDisplay:10.37,2013-03-17 10:38:00,
2013-03-17 11:43:00,53.6,35.4,30.07,ESE,104,3.5,3.5,50,0.00,FEW,,0.00,466.0,WeatherDisplay:10.37,2013-03-17 10:43:00,
2013-03-17 11:48:00,53.3,35.1,30.07,South,190,2.3,2.3,50,0.00,FEW,,0.00,487.0,WeatherDisplay:10.37,2013-03-17 10:48:00,
2013-03-17 11:53:00,53.5,35.3,30.07,ESE,107,4.6,4.6,50,0.00,FEW,,0.00,410.0,WeatherDisplay:10.37,2013-03-17 10:53:00,
2013-03-17 11:58:00,52.9,34.2,30.07,ESE,117,4.6,4.6,49,0.00,FEW,,0.00,436.0,WeatherDisplay:10.37,2013-03-17 10:58:00,
2013-03-17 12:03:00,52.6,34.5,30.06,SSE,162,3.5,3.5,50,0.00,FEW,,0.00,371.0,WeatherDisplay:10.37,2013-03-17 11:03:00,
2013-03-17 12:08:00,52.8,34.7,30.07,East,98,5.8,5.8,50,0.00,FEW,,0.00,367.0,WeatherDisplay:10.37,2013-03-17 11:08:00,
2013-03-17 12:13:00,52.5,34.9,30.06,WNW,298,3.5,3.5,51,0.00,FEW,,0.00,387.0,WeatherDisplay:10.37,2013-03-17 11:13:00,
2013-03-17 12:18:00,52.8,35.2,30.06,ESE,115,3.5,3.5,51,0.00,FEW,,0.00,383.0,WeatherDisplay:10.37,2013-03-17 11:18:00,
2013-03-17 12:23:00,53.0,35.3,30.06,SSE,166,2.3,2.3,51,0.00,FEW,,0.00,439.0,WeatherDisplay:10.37,2013-03-17 11:23:00,
2013-03-17 12:28:00,53.4,36.2,30.06,ESE,113,2.3,2.3,52,0.00,FEW,,0.00,383.0,WeatherDisplay:10.37,2013-03-17 11:28:00,
2013-03-17 12:33:00,53.6,35.9,30.05,SW,219,4.6,4.6,51,0.00,FEW,,0.00,383.0,WeatherDisplay:10.37,2013-03-17 11:33:00,
2013-03-17 12:38:00,53.5,35.8,30.05,SE,144,2.3,2.3,51,0.00,FEW,,0.00,404.0,WeatherDisplay:10.37,2013-03-17 11:38:00,
2013-03-17 12:43:00,53.6,36.4,30.04,SE,146,3.5,3.5,52,0.00,FEW,,0.00,427.0,WeatherDisplay:10.37,2013-03-17 11:43:00,
2013-03-17 12:48:00,53.4,36.2,30.04,ESE,105,3.5,3.5,52,0.00,FEW,,0.00,350.0,WeatherDisplay:10.37,2013-03-17 11:48:00,
2013-03-17 12:53:00,53.1,35.9,30.04,West,271,7.0,7.0,52,0.00,FEW,,0.00,336.0,WeatherDisplay:10.37,2013-03-17 11:53:00,
2013-03-17 12:58:00,53.0,35.8,30.04,SSW,192,5.0,5.0,52,0.00,FEW,,0.00,401.0,WeatherDisplay:10.37,2013-03-17 11:58:00,
2013-03-17 13:03:00,53.1,35.9,30.04,ENE,72,3.5,3.5,52,0.00,FEW,,0.00,469.0,WeatherDisplay:10.37,2013-03-17 12:03:00,
2013-03-17 13:09:00,53.3,35.6,30.03,WSW,250,5.8,5.8,51,0.00,FEW,,0.00,388.0,WeatherDisplay:10.37,2013-03-17 12:09:00,
2013-03-17 13:14:00,53.4,36.2,30.03,ENE,75,4.6,4.6,52,0.00,FEW,,0.00,387.0,WeatherDisplay:10.37,2013-03-17 12:14:00,
2013-03-17 13:19:00,53.4,36.2,30.03,ESE,103,9.2,9.2,52,0.00,FEW,,0.00,536.0,WeatherDisplay:10.37,2013-03-17 12:19:00,
2013-03-17 13:24:00,53.5,36.8,30.03,SSW,196,8.1,8.1,53,0.00,FEW,,0.00,362.0,WeatherDisplay:10.37,2013-03-17 12:24:00,
2013-03-17 13:29:00,53.3,36.1,30.03,SE,126,2.3,2.3,52,0.00,FEW,,0.00,360.0,WeatherDisplay:10.37,2013-03-17 12:29:00,
2013-03-17 13:34:00,53.5,36.3,30.03,SE,126,2.3,2.3,52,0.00,FEW,,0.00,376.0,WeatherDisplay:10.37,2013-03-17 12:34:00,
2013-03-17 13:39:00,54.2,36.9,30.03,SW,227,7.0,7.0,52,0.00,FEW,,0.00,434.0,WeatherDisplay:10.37,2013-03-17 12:39:00,
2013-03-17 13:44:00,53.7,36.0,30.03,SW,233,5.8,5.8,51,0.00,FEW,,0.00,371.0,WeatherDisplay:10.37,2013-03-17 12:44:00,
2013-03-17 13:49:00,53.5,36.8,30.02,SW,214,0.0,0.0,53,0.00,FEW,,0.00,338.0,WeatherDisplay:10.37,2013-03-17 12:49:00,
2013-03-17 13:54:00,54.1,36.9,30.02,South,182,2.3,2.3,52,0.00,FEW,,0.00,301.0,WeatherDisplay:10.37,2013-03-17 12:54:00,
2013-03-17 13:59:00,54.4,36.6,30.02,ESE,113,3.5,3.5,51,0.00,FEW,,0.00,332.0,WeatherDisplay:10.37,2013-03-17 12:59:00,
2013-03-17 14:04:00,54.1,36.9,30.01,ESE,111,2.3,2.3,52,0.00,FEW,,0.00,350.0,WeatherDisplay:10.37,2013-03-17 13:04:00,
2013-03-17 14:09:00,54.4,37.1,30.01,East,93,7.0,7.0,52,0.00,FEW,,0.00,322.0,WeatherDisplay:10.37,2013-03-17 13:09:00,
2013-03-17 14:14:00,54.3,37.5,30.01,ESE,113,4.0,4.0,53,0.00,FEW,,0.00,373.0,WeatherDisplay:10.37,2013-03-17 13:14:00,
2013-03-17 14:19:00,54.1,38.3,30.01,South,175,8.0,8.0,55,0.00,FEW,,0.00,425.0,WeatherDisplay:10.37,2013-03-17 13:19:00,
2013-03-17 14:24:00,53.6,39.6,30.01,SE,128,13.8,13.8,59,0.00,FEW,,0.00,388.0,WeatherDisplay:10.37,2013-03-17 13:24:00,
2013-03-17 14:29:00,53.4,40.3,30.01,West,263,11.5,11.5,61,0.00,FEW,,0.00,345.0,WeatherDisplay:10.37,2013-03-17 13:29:00,
2013-03-17 14:34:00,53.1,40.4,30.01,SSE,157,10.4,10.4,62,0.00,FEW,,0.00,350.0,WeatherDisplay:10.37,2013-03-17 13:34:00,
2013-03-17 14:39:00,53.2,40.5,30.01,South,175,9.2,9.2,62,0.00,FEW,,0.00,366.0,WeatherDisplay:10.37,2013-03-17 13:39:00,
2013-03-17 14:44:00,53.4,41.1,30.01,South,181,8.1,8.1,63,0.00,FEW,,0.00,378.0,WeatherDisplay:10.37,2013-03-17 13:44:00,
2013-03-17 14:49:00,53.3,40.6,30.00,SSE,150,11.5,11.5,62,0.00,FEW,,0.00,348.0,WeatherDisplay:10.37,2013-03-17 13:49:00,
2013-03-17 14:54:00,53.3,41.0,30.00,SE,138,15.0,15.0,63,0.00,FEW,,0.00,357.0,WeatherDisplay:10.37,2013-03-17 13:54:00,
2013-03-17 14:59:00,53.2,40.5,29.99,ESE,117,15.0,15.0,62,0.00,FEW,,0.00,348.0,WeatherDisplay:10.37,2013-03-17 13:59:00,
2013-03-17 15:04:00,53.0,39.9,29.99,SE,137,19.6,19.6,61,0.00,FEW,,0.00,288.0,WeatherDisplay:10.37,2013-03-17 14:04:00,
2013-03-17 15:09:00,52.8,39.3,29.99,SE,130,18.4,18.4,60,0.00,FEW,,0.00,309.0,WeatherDisplay:10.37,2013-03-17 14:09:00,
2013-03-17 15:14:00,53.0,39.5,29.99,ESE,117,12.7,12.7,60,0.00,FEW,,0.00,383.0,WeatherDisplay:10.37,2013-03-17 14:14:00,
2013-03-17 15:19:00,53.6,39.6,29.99,SE,132,13.0,13.0,59,0.00,FEW,,0.00,561.0,WeatherDisplay:10.37,2013-03-17 14:19:00,
2013-03-17 15:24:00,54.0,38.6,29.99,SE,130,14.0,14.0,56,0.00,FEW,,0.00,450.0,WeatherDisplay:10.37,2013-03-17 14:24:00,
2013-03-17 15:29:00,54.1,37.8,29.99,East,98,11.5,11.5,54,0.00,FEW,,0.00,438.0,WeatherDisplay:10.37,2013-03-17 14:29:00,
2013-03-17 15:34:00,54.0,36.8,29.98,ESE,104,13.8,13.8,52,0.00,FEW,,0.00,424.0,WeatherDisplay:10.37,2013-03-17 14:34:00,
2013-03-17 15:39:00,54.2,36.5,29.99,SE,127,11.5,11.5,51,0.00,FEW,,0.00,418.0,WeatherDisplay:10.37,2013-03-17 14:39:00,
2013-03-17 15:44:00,54.6,36.3,29.99,ESE,105,9.2,9.2,50,0.00,BKN,,0.00,392.0,WeatherDisplay:10.37,2013-03-17 14:44:00,
2013-03-17 15:49:00,55.0,38.2,29.98,ESE,102,3.5,3.5,53,0.00,BKN,,0.00,378.0,WeatherDisplay:10.37,2013-03-17 14:49:00,
2013-03-17 15:54:00,54.8,37.0,29.98,East,94,6.9,6.9,51,0.00,BKN,,0.00,360.0,WeatherDisplay:10.37,2013-03-17 14:54:00,
2013-03-17 15:59:00,55.1,37.8,29.99,SSE,154,0.0,0.0,52,0.00,BKN,,0.00,329.0,WeatherDisplay:10.37,2013-03-17 14:59:00,
2013-03-17 16:04:00,56.0,38.1,29.99,ENE,60,1.2,1.2,51,0.00,BKN,,0.00,325.0,WeatherDisplay:10.37,2013-03-17 15:04:00,
2013-03-17 16:20:00,54.9,34.5,29.99,ESE,111,9.2,9.2,46,0.00,BKN,,0.00,113.0,WeatherDisplay:10.37,2013-03-17 15:20:00,
2013-03-17 16:25:00,54.5,35.7,29.99,SE,127,9.2,9.2,49,0.00,BKN,,0.00,116.0,WeatherDisplay:10.37,2013-03-17 15:25:00,
2013-03-17 16:30:00,54.3,36.0,29.99,SSE,165,5.0,5.0,50,0.00,BKN,,0.00,128.0,WeatherDisplay:10.37,2013-03-17 15:30:00,
2013-03-17 16:35:00,54.3,36.0,29.99,SSE,151,4.0,4.5,50,0.00,BKN,,0.00,83.0,WeatherDisplay:10.37,2013-03-17 15:35:00,
2013-03-17 16:40:00,54.3,36.5,29.98,SE,129,5.8,5.8,51,0.00,BKN,,0.00,160.0,WeatherDisplay:10.37,2013-03-17 15:40:00,
2013-03-17 16:45:00,54.2,35.9,29.98,ESE,102,6.9,6.9,50,0.00,BKN,,0.00,116.0,WeatherDisplay:10.37,2013-03-17 15:45:00,
2013-03-17 16:50:00,54.1,36.4,29.97,ESE,107,4.6,4.6,51,0.00,BKN,,0.00,132.0,WeatherDisplay:10.37,2013-03-17 15:50:00,
2013-03-17 16:55:00,54.2,36.5,29.97,ESE,110,8.1,8.1,51,0.00,BKN,,0.00,111.0,WeatherDisplay:10.37,2013-03-17 15:55:00,
2013-03-17 17:00:00,54.1,36.4,29.96,ESE,115,13.0,13.0,51,0.00,BKN,,0.00,130.0,WeatherDisplay:10.37,2013-03-17 16:00:00,
2013-03-17 17:05:00,53.9,36.2,29.96,ESE,123,11.0,11.0,51,0.00,BKN,,0.00,77.0,WeatherDisplay:10.37,2013-03-17 16:05:00,
2013-03-17 17:10:00,53.8,36.6,29.97,SE,138,11.5,11.5,52,0.00,BKN,,0.00,100.0,WeatherDisplay:10.37,2013-03-17 16:10:00,
2013-03-17 17:15:00,53.7,37.0,29.96,ESE,113,9.2,9.4,53,0.00,BKN,,0.00,77.0,WeatherDisplay:10.37,2013-03-17 16:15:00,
2013-03-17 17:20:00,53.7,37.0,29.97,East,94,11.5,11.5,53,0.00,BKN,,0.00,67.0,WeatherDisplay:10.37,2013-03-17 16:20:00,
2013-03-17 17:26:00,53.7,37.0,29.97,SE,130,13.8,13.8,53,0.00,BKN,,0.00,51.0,WeatherDisplay:10.37,2013-03-17 16:26:00,
2013-03-17 17:30:00,53.7,37.9,29.97,East,90,9.2,9.2,55,0.00,BKN,,0.00,35.0,WeatherDisplay:10.37,2013-03-17 16:30:00,
2013-03-17 17:36:00,53.7,36.5,29.97,ESE,109,8.1,8.1,52,0.00,BKN,,0.00,18.0,WeatherDisplay:10.37,2013-03-17 16:36:00,
2013-03-17 17:41:00,53.7,37.0,29.97,ESE,106,6.9,6.9,53,0.00,BKN,,0.00,11.0,WeatherDisplay:10.37,2013-03-17 16:41:00,
2013-03-17 17:46:00,53.5,37.3,29.97,ESE,107,4.6,4.6,54,0.00,BKN,,0.00,7.0,WeatherDisplay:10.37,2013-03-17 16:46:00,
2013-03-17 17:51:00,53.3,37.5,29.97,WNW,285,5.8,5.8,55,0.00,BKN,,0.00,5.0,WeatherDisplay:10.37,2013-03-17 16:51:00,
2013-03-17 17:56:00,53.2,37.4,29.97,East,98,4.6,4.6,55,0.00,BKN,,0.00,5.0,WeatherDisplay:10.37,2013-03-17 16:56:00,
2013-03-17 18:01:00,53.1,37.8,29.97,East,95,6.9,6.9,56,0.00,BKN,,0.00,0.0,WeatherDisplay:10.37,2013-03-17 17:01:00,
2013-03-17 18:06:00,53.1,38.3,29.97,SW,232,3.5,3.5,57,0.00,BKN,,0.00,0.0,WeatherDisplay:10.37,2013-03-17 17:06:00,
2013-03-17 18:11:00,53.1,38.3,29.97,ESE,105,12.0,12.0,57,0.00,BKN,,0.00,0.0,WeatherDisplay:10.37,2013-03-17 17:11:00,
2013-03-17 18:16:00,53.0,39.0,29.96,East,82,3.5,3.5,59,0.00,BKN,,0.00,0.0,WeatherDisplay:10.37,2013-03-17 17:16:00,
2013-03-17 18:21:00,52.8,39.3,29.95,ENE,69,13.8,13.8,60,0.00,BKN,,0.00,0.0,WeatherDisplay:10.37,2013-03-17 17:21:00,
2013-03-17 18:26:00,52.8,39.7,29.96,East,82,5.0,5.0,61,0.00,BKN,,0.00,0.0,WeatherDisplay:10.37,2013-03-17 17:26:00,
2013-03-17 18:31:00,52.7,39.2,29.96,SW,236,6.9,6.9,60,0.00,BKN,,0.00,0.0,WeatherDisplay:10.37,2013-03-17 17:31:00,
2013-03-17 18:36:00,52.5,39.0,29.96,NE,40,6.9,6.9,60,0.00,BKN,,0.00,0.0,WeatherDisplay:10.37,2013-03-17 17:36:00,
2013-03-17 18:41:00,52.3,38.8,29.96,NE,46,8.1,8.1,60,0.00,BKN,,0.00,0.0,WeatherDisplay:10.37,2013-03-17 17:41:00,
2013-03-17 18:46:00,52.2,39.1,29.97,NE,36,5.8,5.8,61,0.00,BKN,,0.00,0.0,WeatherDisplay:10.37,2013-03-17 17:46:00,
2013-03-17 18:51:00,52.4,39.3,29.97,East,93,6.0,6.0,61,0.00,BKN,,0.00,0.0,WeatherDisplay:10.37,2013-03-17 17:51:00,
2013-03-17 18:57:00,52.4,38.9,29.97,ESE,117,8.1,8.1,60,0.00,BKN,,0.00,0.0,WeatherDisplay:10.37,2013-03-17 17:57:00,
2013-03-17 19:02:00,52.3,38.8,29.97,South,176,5.0,5.0,60,0.00,BKN,,0.00,0.0,WeatherDisplay:10.37,2013-03-17 18:02:00,
2013-03-17 19:07:00,52.3,38.8,29.96,ESE,115,5.8,5.8,60,0.00,BKN,,0.00,0.0,WeatherDisplay:10.37,2013-03-17 18:07:00,
2013-03-17 19:12:00,52.3,39.2,29.96,NW,304,6.9,6.9,61,0.00,BKN,,0.00,0.0,WeatherDisplay:10.37,2013-03-17 18:12:00,
2013-03-17 19:17:00,52.0,39.4,29.96,WSW,245,6.0,6.0,62,0.00,BKN,,0.00,0.0,WeatherDisplay:10.37,2013-03-17 18:17:00,
2013-03-17 19:22:00,51.9,39.3,29.95,East,100,4.6,4.6,62,0.00,BKN,,0.00,0.0,WeatherDisplay:10.37,2013-03-17 18:22:00,
2013-03-17 19:27:00,51.8,39.6,29.95,South,186,3.5,3.5,63,0.00,BKN,,0.00,0.0,WeatherDisplay:10.37,2013-03-17 18:27:00,
2013-03-17 19:32:00,52.0,39.8,29.96,SE,138,8.1,8.1,63,0.00,BKN,,0.00,0.0,WeatherDisplay:10.37,2013-03-17 18:32:00,
2013-03-17 19:37:00,52.3,39.7,29.95,WNW,303,5.8,5.8,62,0.00,BKN,,0.00,0.0,WeatherDisplay:10.37,2013-03-17 18:37:00,
2013-03-17 19:42:00,52.7,40.5,29.95,SE,142,10.4,10.4,63,0.00,BKN,,0.00,0.0,WeatherDisplay:10.37,2013-03-17 18:42:00,
2013-03-17 19:47:00,52.8,40.1,29.95,East,92,9.2,9.2,62,0.00,BKN,,0.00,0.0,WeatherDisplay:10.37,2013-03-17 18:47:00,
2013-03-17 19:52:00,52.8,40.1,29.95,East,82,4.6,4.6,62,0.00,BKN,,0.00,0.0,WeatherDisplay:10.37,2013-03-17 18:52:00,
2013-03-17 19:57:00,52.8,39.7,29.95,ENE,75,8.1,8.1,61,0.00,BKN,,0.00,0.0,WeatherDisplay:10.37,2013-03-17 18:57:00,
2013-03-17 20:02:00,52.8,40.1,29.95,WNW,292,3.5,3.5,62,0.00,BKN,,0.00,0.0,WeatherDisplay:10.37,2013-03-17 19:02:00,
2013-03-17 20:08:00,52.5,39.8,29.95,SSE,159,3.5,3.5,62,0.00,BKN,,0.00,0.0,WeatherDisplay:10.37,2013-03-17 19:08:00,
2013-03-17 20:13:00,52.3,40.1,29.94,ENE,62,9.2,9.2,63,0.00,BKN,,0.00,0.0,WeatherDisplay:10.37,2013-03-17 19:13:00,
2013-03-17 20:18:00,52.4,40.6,29.94,ESE,115,8.1,8.1,64,0.00,BKN,,0.00,0.0,WeatherDisplay:10.37,2013-03-17 19:18:00,
2013-03-17 20:23:00,52.8,41.0,29.94,ENE,77,2.3,2.3,64,0.00,BKN,,0.00,0.0,WeatherDisplay:10.37,2013-03-17 19:23:00,
2013-03-17 20:28:00,52.9,41.4,29.94,ESE,111,4.6,4.6,65,0.00,BKN,,0.00,0.0,WeatherDisplay:10.37,2013-03-17 19:28:00,
2013-03-17 20:33:00,53.0,41.5,29.94,ESE,111,4.6,4.6,65,0.00,BKN,,0.00,0.0,WeatherDisplay:10.37,2013-03-17 19:33:00,
2013-03-17 20:38:00,53.3,41.8,29.94,ESE,118,5.8,5.8,65,0.00,BKN,,0.00,0.0,WeatherDisplay:10.37,2013-03-17 19:38:00,
2013-03-17 20:43:00,53.5,42.0,29.94,NE,44,3.5,3.5,65,0.00,BKN,,0.00,0.0,WeatherDisplay:10.37,2013-03-17 19:43:00,
2013-03-17 20:48:00,53.6,42.1,29.93,ESE,102,12.7,12.7,65,0.00,BKN,,0.00,0.0,WeatherDisplay:10.37,2013-03-17 19:48:00,
2013-03-17 20:53:00,53.6,41.7,29.93,NE,53,9.2,9.2,64,0.00,BKN,,0.00,0.0,WeatherDisplay:10.37,2013-03-17 19:53:00,
2013-03-17 20:58:00,53.7,41.8,29.92,SSW,198,13.8,13.8,64,0.00,BKN,,0.00,0.0,WeatherDisplay:10.37,2013-03-17 19:58:00,
2013-03-17 21:03:00,53.7,41.4,29.92,East,93,7.0,7.0,63,0.00,BKN,,0.00,0.0,WeatherDisplay:10.37,2013-03-17 20:03:00,
2013-03-17 21:08:00,53.8,41.1,29.93,SSE,167,6.9,6.9,62,0.00,BKN,,0.00,0.0,WeatherDisplay:10.37,2013-03-17 20:08:00,
2013-03-17 21:13:00,53.5,41.2,29.93,SSW,212,2.3,2.3,63,0.00,BKN,,0.00,0.0,WeatherDisplay:10.37,2013-03-17 20:13:00,
2013-03-17 21:18:00,53.3,41.0,29.92,ENE,74,9.2,9.2,63,0.00,BKN,,0.00,0.0,WeatherDisplay:10.37,2013-03-17 20:18:00,
2013-03-17 21:23:00,53.7,41.4,29.92,NE,53,10.4,10.4,63,0.00,BKN,,0.00,0.0,WeatherDisplay:10.37,2013-03-17 20:23:00,
2013-03-17 21:28:00,53.8,41.5,29.92,NNE,32,3.5,3.5,63,0.00,BKN,,0.00,0.0,WeatherDisplay:10.37,2013-03-17 20:28:00,
2013-03-17 21:33:00,53.5,41.6,29.92,East,92,11.0,11.0,64,0.00,BKN,,0.00,0.0,WeatherDisplay:10.37,2013-03-17 20:33:00,
2013-03-17 21:38:00,53.5,42.4,29.92,ESE,107,7.0,7.0,66,0.00,BKN,,0.00,0.0,WeatherDisplay:10.37,2013-03-17 20:38:00,
2013-03-17 21:43:00,53.8,42.3,29.91,East,80,4.6,4.6,65,0.00,BKN,,0.00,0.0,WeatherDisplay:10.37,2013-03-17 20:43:00,
2013-03-17 21:48:00,54.1,42.6,29.91,ESE,105,8.1,8.1,65,0.00,BKN,,0.00,0.0,WeatherDisplay:10.37,2013-03-17 20:48:00,
2013-03-17 21:53:00,54.3,42.8,29.91,NE,49,3.5,3.5,65,0.00,BKN,,0.00,0.0,WeatherDisplay:10.37,2013-03-17 20:53:00,
2013-03-17 21:58:00,54.3,42.8,29.91,SE,141,9.2,9.2,65,0.00,BKN,,0.00,0.0,WeatherDisplay:10.37,2013-03-17 20:58:00,
2013-03-17 22:03:00,54.2,43.1,29.91,West,263,3.5,3.5,66,0.00,BKN,,0.00,0.0,WeatherDisplay:10.37,2013-03-17 21:03:00,
2013-03-17 22:08:00,54.2,43.1,29.90,SSE,164,8.1,8.1,66,0.00,BKN,,0.00,0.0,WeatherDisplay:10.37,2013-03-17 21:08:00,
2013-03-17 22:13:00,54.1,43.0,29.90,East,94,6.9,6.9,66,0.00,BKN,,0.00,0.0,WeatherDisplay:10.37,2013-03-17 21:13:00,
2013-03-17 22:18:00,54.2,43.5,29.89,East,86,12.7,12.7,67,0.00,BKN,,0.00,0.0,WeatherDisplay:10.37,2013-03-17 21:18:00,
2013-03-17 22:23:00,54.4,43.7,29.90,ESE,107,8.0,8.0,67,0.00,BKN,,0.00,0.0,WeatherDisplay:10.37,2013-03-17 21:23:00,
2013-03-17 22:28:00,54.5,43.8,29.89,East,101,10.4,10.4,67,0.00,BKN,,0.00,0.0,WeatherDisplay:10.37,2013-03-17 21:28:00,
2013-03-17 22:33:00,54.7,44.0,29.88,ESE,109,5.8,5.8,67,0.00,BKN,,0.00,0.0,WeatherDisplay:10.37,2013-03-17 21:33:00,
2013-03-17 22:38:00,54.7,44.0,29.88,East,88,11.5,11.5,67,0.00,BKN,,0.00,0.0,WeatherDisplay:10.37,2013-03-17 21:38:00,
2013-03-17 22:43:00,54.8,44.0,29.88,East,92,16.1,16.1,67,0.00,BKN,,0.00,0.0,WeatherDisplay:10.37,2013-03-17 21:43:00,
2013-03-17 22:48:00,54.9,43.7,29.87,East,97,15.0,15.0,66,0.00,BKN,,0.00,0.0,WeatherDisplay:10.37,2013-03-17 21:48:00,
2013-03-17 22:53:00,54.7,43.2,29.87,NNW,342,15.0,15.0,65,0.00,BKN,,0.00,0.0,WeatherDisplay:10.37,2013-03-17 21:53:00,
2013-03-17 22:58:00,54.7,43.6,29.88,ESE,105,6.9,6.9,66,0.00,BKN,,0.00,0.0,WeatherDisplay:10.37,2013-03-17 21:58:00,
2013-03-17 23:03:00,54.7,43.6,29.87,ENE,78,4.6,4.6,66,0.00,BKN,,0.00,0.0,WeatherDisplay:10.37,2013-03-17 22:03:00,
2013-03-17 23:08:00,54.9,43.7,29.87,ESE,113,13.0,13.0,66,0.00,BKN,,0.00,0.0,WeatherDisplay:10.37,2013-03-17 22:08:00,
2013-03-17 23:13:00,55.1,43.5,29.86,ESE,123,13.8,13.8,65,0.00,BKN,,0.00,0.0,WeatherDisplay:10.37,2013-03-17 22:13:00,
2013-03-17 23:18:00,55.3,43.3,29.86,ESE,111,12.7,12.7,64,0.00,BKN,,0.00,0.0,WeatherDisplay:10.37,2013-03-17 22:18:00,
2013-03-17 23:23:00,55.6,43.6,29.86,ESE,108,19.6,19.6,64,0.00,BKN,,0.00,0.0,WeatherDisplay:10.37,2013-03-17 22:23:00,
2013-03-17 23:28:00,55.4,43.4,29.86,NNW,332,6.9,6.9,64,0.00,BKN,,0.00,0.0,WeatherDisplay:10.37,2013-03-17 22:28:00,
2013-03-17 23:33:00,55.3,43.3,29.86,East,94,8.1,8.1,64,0.00,BKN,,0.00,0.0,WeatherDisplay:10.37,2013-03-17 22:33:00,
2013-03-17 23:38:00,55.1,43.1,29.86,South,180,9.2,9.2,64,0.00,BKN,,0.00,0.0,WeatherDisplay:10.37,2013-03-17 22:38:00,
2013-03-17 23:43:00,55.0,43.4,29.86,East,93,10.0,10.0,65,0.00,BKN,,0.00,0.0,WeatherDisplay:10.37,2013-03-17 22:43:00,
2013-03-17 23:48:00,55.3,43.3,29.86,SE,144,15.0,15.0,64,0.00,BKN,,0.00,0.0,WeatherDisplay:10.37,2013-03-17 22:48:00,
2013-03-17 23:53:00,55.6,43.2,29.86,NNE,32,6.0,6.0,63,0.00,BKN,,0.00,0.0,WeatherDisplay:10.37,2013-03-17 22:53:00,
2013-03-17 23:58:00,55.4,43.0,29.86,NE,55,10.0,10.0,63,0.00,BKN,,0.00,0.0,WeatherDisplay:10.37,2013-03-17 22:58:00,